createdAt,value
2023-01-08T00:02:01.458Z,6.87
2023-01-08T00:07:06.406Z,6.97
2023-01-08T00:12:11.697Z,6.60
2023-01-08T00:17:19.431Z,7.00
2023-01-08T00:22:24.933Z,8.30
2023-01-08T00:27:29.886Z,7.83
2023-01-08T00:32:37.826Z,7.63
2023-01-08T00:37:42.866Z,6.67
2023-01-08T00:42:47.917Z,8.03
2023-01-08T00:47:55.645Z,7.97
2023-01-08T00:53:00.912Z,7.43
2023-01-08T00:58:05.829Z,7.03
2023-01-08T01:03:13.423Z,7.70
2023-01-08T01:08:18.373Z,7.60
2023-01-08T01:13:23.620Z,7.57
2023-01-08T01:18:31.554Z,7.60
2023-01-08T01:23:36.966Z,7.90
2023-01-08T01:28:42.038Z,7.10
2023-01-08T01:33:50.220Z,8.70
2023-01-08T01:38:59.803Z,8.13
2023-01-08T01:44:34.548Z,8.70
2023-01-08T01:49:44.974Z,8.93
2023-01-08T01:54:51.482Z,8.37
2023-01-08T01:59:58.365Z,8.43
2023-01-08T02:05:06.307Z,9.00
2023-01-08T02:10:17.961Z,7.70
2023-01-08T02:15:30.785Z,8.03
2023-01-08T02:20:41.164Z,9.43
2023-01-08T02:26:24.959Z,11.87
2023-01-08T02:31:32.947Z,10.50
2023-01-08T02:36:42.636Z,11.73
2023-01-08T02:42:09.631Z,10.80
2023-01-08T02:47:20.667Z,9.70
2023-01-08T02:52:29.706Z,9.77
2023-01-08T02:57:38.092Z,11.13
2023-01-08T03:02:45.895Z,11.20
2023-01-08T03:07:51.821Z,10.23
2023-01-08T03:13:04.043Z,10.27
2023-01-08T03:18:16.804Z,11.17
2023-01-08T03:23:23.823Z,10.40
2023-01-08T03:28:36.725Z,11.00
2023-01-08T03:33:42.217Z,10.80
2023-01-08T03:38:52.903Z,12.53
2023-01-08T03:44:00.682Z,12.20
2023-01-08T03:49:08.288Z,12.37
2023-01-08T03:54:17.063Z,12.83
2023-01-08T03:59:24.839Z,13.03
2023-01-08T04:04:29.755Z,13.80
2023-01-08T04:09:34.685Z,13.40
2023-01-08T04:14:42.151Z,13.30
2023-01-08T04:19:47.241Z,12.70
2023-01-08T04:24:52.309Z,12.80
2023-01-08T04:29:59.984Z,13.70
2023-01-08T04:35:05.263Z,14.03
2023-01-08T04:40:13.238Z,12.40
2023-01-08T04:45:22.106Z,13.53
2023-01-08T04:50:27.540Z,13.27
2023-01-08T04:55:32.553Z,13.07
2023-01-08T05:00:42.454Z,13.60
2023-01-08T05:05:49.883Z,13.30
2023-01-08T05:10:54.983Z,13.70
2023-01-08T05:16:04.547Z,15.20
2023-01-08T05:21:09.759Z,15.00
2023-01-08T05:26:14.721Z,15.33
2023-01-08T05:31:22.399Z,15.10
2023-01-08T05:36:27.393Z,15.03
2023-01-08T05:41:32.395Z,14.30
2023-01-08T05:46:40.101Z,15.17
2023-01-08T05:51:45.088Z,14.57
2023-01-08T05:56:50.024Z,14.73
2023-01-08T06:01:58.430Z,13.73
2023-01-08T06:07:03.335Z,15.03
2023-01-08T06:12:08.950Z,14.87
2023-01-08T06:17:17.350Z,14.83
2023-01-08T06:22:22.280Z,15.63
2023-01-08T06:27:27.265Z,15.93
2023-01-08T06:32:34.896Z,15.93
2023-01-08T06:37:39.990Z,15.97
2023-01-08T06:42:46.468Z,15.73
2023-01-08T06:47:54.064Z,15.20
2023-01-08T06:53:00.172Z,17.53
2023-01-08T06:58:05.133Z,15.47
2023-01-08T07:03:12.824Z,16.97
2023-01-08T07:08:19.893Z,16.37
2023-01-08T07:13:25.497Z,15.73
2023-01-08T07:18:35.053Z,16.70
2023-01-08T07:23:42.313Z,16.43
2023-01-08T07:28:47.575Z,15.87
2023-01-08T07:33:55.624Z,15.80
2023-01-08T07:39:00.581Z,15.43
2023-01-08T07:44:05.629Z,17.27
2023-01-08T07:49:14.839Z,15.00
2023-01-08T07:54:19.806Z,15.37
2023-01-08T07:59:26.441Z,15.47
2023-01-08T08:04:34.280Z,15.17
2023-01-08T08:09:39.371Z,14.53
2023-01-08T08:14:44.261Z,13.53
2023-01-08T08:19:54.218Z,13.53
2023-01-08T08:24:59.179Z,14.03
2023-01-08T08:30:04.235Z,12.70
2023-01-08T08:35:12.722Z,14.33
2023-01-08T08:40:17.827Z,13.17
2023-01-08T08:45:23.891Z,13.60
2023-01-08T08:50:31.694Z,13.47
2023-01-08T08:55:37.101Z,13.27
2023-01-08T09:00:43.236Z,13.67
2023-01-08T09:05:50.785Z,13.63
2023-01-08T09:10:58.372Z,12.97
2023-01-08T09:16:03.446Z,13.03
2023-01-08T09:21:12.018Z,13.20
2023-01-08T09:26:17.104Z,12.30
2023-01-08T09:31:22.163Z,12.27
2023-01-08T09:36:29.762Z,13.10
2023-01-08T09:41:37.872Z,12.90
2023-01-08T09:46:43.234Z,13.50
2023-01-08T09:51:50.993Z,13.13
2023-01-08T09:56:59.469Z,14.03
2023-01-08T10:02:04.828Z,12.87
2023-01-08T10:07:24.646Z,13.03
2023-01-08T10:12:31.942Z,13.20
2023-01-08T10:17:41.540Z,13.83
2023-01-08T10:22:50.480Z,13.13
2023-01-08T10:28:01.963Z,11.87
2023-01-08T10:33:08.937Z,15.13
2023-01-08T10:38:33.928Z,13.40
2023-01-08T10:43:50.400Z,14.23
2023-01-08T10:48:58.737Z,13.07
2023-01-08T10:54:28.378Z,13.53
2023-01-08T10:59:36.207Z,13.30
2023-01-08T11:04:41.439Z,12.83
2023-01-08T11:09:54.727Z,13.27
2023-01-08T11:15:00.298Z,13.17
2023-01-08T11:20:23.065Z,13.17
2023-01-08T11:25:33.670Z,11.80
2023-01-08T11:30:41.773Z,12.27
2023-01-08T11:35:51.954Z,12.33
2023-01-08T11:41:15.658Z,11.97
2023-01-08T11:46:33.417Z,11.07
2023-01-08T11:51:50.585Z,10.60
2023-01-08T11:57:12.990Z,13.00
2023-01-08T12:02:25.539Z,11.20
2023-01-08T12:07:38.530Z,12.30
2023-01-08T12:12:57.682Z,12.83
2023-01-08T12:18:17.810Z,13.63
2023-01-08T12:23:40.943Z,12.57
2023-01-08T12:29:05.557Z,13.07
2023-01-08T12:34:15.854Z,12.13
2023-01-08T12:39:27.966Z,13.80
2023-01-08T12:44:36.724Z,14.10
2023-01-08T12:49:51.590Z,13.83
2023-01-08T12:55:01.987Z,14.50
2023-01-08T13:00:15.160Z,15.63
2023-01-08T13:05:34.026Z,14.80
2023-01-08T13:10:42.109Z,15.70
2023-01-08T13:15:55.744Z,14.57
2023-01-08T13:21:02.621Z,16.40
2023-01-08T13:26:09.595Z,16.80
2023-01-08T13:31:32.631Z,17.00
2023-01-08T13:36:37.995Z,16.50
2023-01-08T13:41:46.236Z,17.17
2023-01-08T13:47:03.665Z,16.57
2023-01-08T13:52:10.023Z,17.00
2023-01-08T13:57:20.797Z,16.57
2023-01-08T14:02:34.021Z,18.40
2023-01-08T14:07:41.381Z,17.83
2023-01-08T14:12:46.803Z,18.90
2023-01-08T14:17:55.306Z,19.70
2023-01-08T14:23:00.848Z,19.10
2023-01-08T14:28:09.414Z,18.33
2023-01-08T14:33:24.267Z,19.20
2023-01-08T14:38:29.231Z,18.70
2023-01-08T14:43:36.979Z,17.93
2023-01-08T14:48:47.962Z,17.60
2023-01-08T14:53:56.843Z,17.63
2023-01-08T14:59:03.116Z,19.37
2023-01-08T15:04:19.470Z,19.23
2023-01-08T15:09:26.062Z,19.80
2023-01-08T15:14:33.566Z,19.60
2023-01-08T15:19:46.731Z,20.93
2023-01-08T15:25:01.004Z,20.27
2023-01-08T15:30:09.399Z,21.70
2023-01-08T15:35:20.881Z,19.43
2023-01-08T15:40:26.039Z,20.90
2023-01-08T15:45:32.856Z,20.97
2023-01-08T15:50:42.155Z,21.70
2023-01-08T15:55:51.453Z,20.87
2023-01-08T16:00:56.372Z,18.93
2023-01-08T16:06:09.078Z,21.63
2023-01-08T16:11:14.298Z,19.93
2023-01-08T16:16:20.840Z,19.90
2023-01-08T16:21:28.518Z,17.60
2023-01-08T16:26:33.546Z,18.03
2023-01-08T16:31:38.682Z,17.03
2023-01-08T16:36:46.404Z,17.57
2023-01-08T16:41:51.557Z,15.97
2023-01-08T16:46:56.483Z,17.90
2023-01-08T16:52:06.369Z,16.33
2023-01-08T16:57:11.334Z,17.07
2023-01-08T17:02:16.365Z,16.43
2023-01-08T17:07:24.177Z,17.73
2023-01-08T17:12:30.007Z,17.83
2023-01-08T17:17:36.015Z,17.57
2023-01-08T17:22:43.563Z,19.30
2023-01-08T17:27:48.580Z,18.23
2023-01-08T17:32:53.608Z,17.33
2023-01-08T17:38:04.387Z,17.90
2023-01-08T17:43:10.299Z,18.07
2023-01-08T17:48:15.351Z,17.13
2023-01-08T17:53:23.033Z,19.53
2023-01-08T17:58:28.127Z,18.90
2023-01-08T18:03:36.118Z,17.83
2023-01-08T18:08:44.195Z,18.10
2023-01-08T18:13:49.910Z,18.77
2023-01-08T18:18:55.548Z,16.30
2023-01-08T18:24:05.234Z,16.37
2023-01-08T18:29:10.487Z,18.00
2023-01-08T18:34:17.325Z,18.13
2023-01-08T18:39:26.781Z,18.33
2023-01-08T18:44:32.104Z,18.10
2023-01-08T18:49:49.308Z,16.77
2023-01-08T18:54:54.458Z,16.47
2023-01-08T18:59:59.996Z,18.23
2023-01-08T19:05:10.022Z,18.27
2023-01-08T19:10:17.516Z,19.07
2023-01-08T19:15:22.940Z,18.10
2023-01-08T19:20:31.304Z,19.83
2023-01-08T19:25:37.788Z,19.00
2023-01-08T19:30:46.064Z,18.03
2023-01-08T19:35:56.097Z,18.80
2023-01-08T19:41:04.070Z,18.33
2023-01-08T19:46:14.306Z,18.03
2023-01-08T19:51:22.962Z,18.23
2023-01-08T19:56:31.111Z,17.77
2023-01-08T20:01:37.371Z,18.03
2023-01-08T20:06:46.667Z,19.30
2023-01-08T20:11:59.861Z,16.47
2023-01-08T20:17:06.041Z,17.47
2023-01-08T20:22:17.099Z,17.37
2023-01-08T20:27:25.740Z,18.23
2023-01-08T20:32:34.108Z,17.27
2023-01-08T20:37:46.835Z,16.93
2023-01-08T20:42:53.967Z,18.63
2023-01-08T20:48:01.798Z,17.63
2023-01-08T20:53:12.694Z,17.97
2023-01-08T20:58:19.784Z,17.23
2023-01-08T21:03:25.043Z,17.47
2023-01-08T21:08:32.917Z,15.77
2023-01-08T21:13:40.946Z,15.87
2023-01-08T21:18:47.697Z,16.87
2023-01-08T21:23:55.547Z,16.93
2023-01-08T21:29:02.672Z,17.33
2023-01-08T21:34:09.141Z,16.10
2023-01-08T21:39:16.837Z,16.77
2023-01-08T21:44:38.439Z,15.93
2023-01-08T21:49:43.528Z,17.00
2023-01-08T21:54:51.156Z,17.27
2023-01-08T21:59:57.043Z,16.47
2023-01-08T22:05:02.030Z,17.13
2023-01-08T22:10:10.686Z,16.87
2023-01-08T22:15:15.955Z,17.47
2023-01-08T22:20:21.069Z,17.27
2023-01-08T22:25:28.900Z,16.17
2023-01-08T22:30:34.073Z,17.70
2023-01-08T22:35:40.516Z,16.90
2023-01-08T22:40:48.129Z,16.97
2023-01-08T22:45:55.672Z,16.90
2023-01-08T22:51:06.196Z,16.30
2023-01-08T22:56:14.841Z,15.93
2023-01-08T23:01:24.493Z,17.23
2023-01-08T23:06:31.085Z,17.37
2023-01-08T23:11:38.726Z,17.47
2023-01-08T23:16:43.922Z,17.07
2023-01-08T23:21:49.092Z,16.53
2023-01-08T23:26:56.689Z,15.97
2023-01-08T23:32:01.805Z,16.67
2023-01-08T23:37:06.861Z,16.57
2023-01-08T23:42:14.485Z,16.07
2023-01-08T23:47:19.431Z,17.17
2023-01-08T23:52:24.382Z,17.23
2023-01-08T23:57:31.930Z,16.33
